Time;durP1;ratioP1;P1;durP2;ratioP2;P2;SDS_P1;SDS_P2;PMS_P1;PMS_P2;Temp;Humidity;BMP_temperature;BMP_pressure;BME280_temperature;BME280_humidity;BME280_pressure;Samples;Min_cycle;Max_cycle;Signal;HPM_P1;HPM_P2
2022/08/15 00:01:00;;;;;;;4.80;2.20;;;26.30;45.00;;;;;;5051184;28;20033;-43
2022/08/15 00:03:32;;;;;;;3.65;1.75;;;26.20;45.60;;;;;;5044576;28;20364;-52
2022/08/15 00:06:02;;;;;;;2.65;1.85;;;26.20;45.40;;;;;;5057872;28;20466;-47
2022/08/15 00:08:30;;;;;;;2.53;2.00;;;26.20;45.30;;;;;;5070360;28;20033;-43
2022/08/15 00:11:04;;;;;;;2.38;2.00;;;26.20;45.10;;;;;;5071883;28;20028;-47
2022/08/15 00:13:31;;;;;;;2.63;2.03;;;26.30;45.30;;;;;;5071184;28;20086;-42
2022/08/15 00:15:56;;;;;;;2.35;1.90;;;26.30;45.30;;;;;;5071838;28;20033;-43
2022/08/15 00:18:24;;;;;;;2.65;2.10;;;26.20;45.30;;;;;;5070171;28;20025;-55
2022/08/15 00:20:50;;;;;;;2.72;2.08;;;26.20;45.30;;;;;;5070436;28;20466;-42
2022/08/15 00:23:18;;;;;;;2.33;1.88;;;26.20;45.50;;;;;;5071841;28;20036;-43
2022/08/15 00:25:47;;;;;;;2.65;1.80;;;26.20;45.50;;;;;;5070932;28;20039;-42
2022/08/15 00:28:14;;;;;;;3.63;2.15;;;26.20;45.80;;;;;;5071917;28;20031;-43
2022/08/15 00:30:43;;;;;;;2.53;2.10;;;26.30;45.70;;;;;;5071080;28;20100;-46
2022/08/15 00:33:09;;;;;;;2.50;1.92;;;26.30;45.80;;;;;;5070662;28;20035;-51
2022/08/15 00:35:36;;;;;;;2.72;2.13;;;26.30;45.80;;;;;;5069373;28;20090;-43
2022/08/15 00:38:03;;;;;;;2.28;1.90;;;26.30;45.80;;;;;;5071670;28;20033;-47
2022/08/15 00:40:29;;;;;;;2.13;1.65;;;26.20;46.00;;;;;;5070826;28;20021;-48
2022/08/15 00:42:55;;;;;;;2.70;1.90;;;26.10;46.00;;;;;;5071432;28;20040;-43
2022/08/15 00:45:23;;;;;;;3.70;1.95;;;26.20;46.00;;;;;;5071707;28;20041;-44
2022/08/15 00:48:41;;;;;;;4.65;2.47;;;26.20;46.10;;;;;;5070900;28;20039;-44
2022/08/15 00:50:35;;;;;;;2.92;1.90;;;26.20;46.30;;;;;;5067677;28;20040;-45
2022/08/15 00:53:10;;;;;;;2.97;2.55;;;26.10;46.40;;;;;;5053548;28;20440;-47
2022/08/15 00:55:39;;;;;;;2.95;2.00;;;26.10;46.70;;;;;;5070570;28;20385;-49
2022/08/15 00:58:06;;;;;;;1.95;1.63;;;26.10;46.80;;;;;;5071169;28;20028;-47
2022/08/15 01:00:37;;;;;;;2.25;1.83;;;26.10;46.80;;;;;;5070773;28;20070;-44
2022/08/15 01:03:09;;;;;;;3.63;2.40;;;26.10;46.90;;;;;;5071658;28;20028;-43
2022/08/15 01:05:34;;;;;;;3.80;2.17;;;26.10;46.70;;;;;;5071446;28;20102;-45
2022/08/15 01:08:01;;;;;;;3.58;2.30;;;26.20;46.80;;;;;;5054043;28;20478;-43
2022/08/15 01:10:27;;;;;;;2.97;2.30;;;26.20;47.00;;;;;;5070114;28;20040;-52
2022/08/15 01:12:53;;;;;;;3.20;2.03;;;26.20;47.10;;;;;;5075302;28;20025;-43
2022/08/15 01:15:20;;;;;;;4.43;2.38;;;26.20;47.20;;;;;;5067182;28;20480;-43
2022/08/15 01:17:46;;;;;;;2.33;2.10;;;26.20;47.30;;;;;;5054232;28;20033;-47
2022/08/15 01:20:16;;;;;;;4.25;2.13;;;26.20;47.30;;;;;;5055051;28;20025;-45
2022/08/15 01:23:21;;;;;;;2.42;1.88;;;26.20;47.50;;;;;;5062721;28;20032;-43
2022/08/15 01:25:55;;;;;;;3.20;1.88;;;26.20;47.60;;;;;;5072627;28;20028;-44
2022/08/15 01:28:28;;;;;;;2.80;2.20;;;26.10;47.60;;;;;;5074901;28;20048;-46
2022/08/15 01:31:01;;;;;;;3.30;2.22;;;26.10;47.60;;;;;;5075042;28;20021;-43
2022/08/15 01:33:29;;;;;;;3.83;2.63;;;26.10;47.70;;;;;;5073036;28;20119;-54
2022/08/15 01:35:55;;;;;;;2.65;2.25;;;26.10;47.70;;;;;;5074684;28;20040;-43
2022/08/15 01:38:37;;;;;;;3.45;2.53;;;26.10;47.70;;;;;;5074814;28;20035;-46
2022/08/15 01:41:08;;;;;;;2.53;1.92;;;26.10;47.60;;;;;;5072108;28;20028;-44
2022/08/15 01:43:42;;;;;;;6.45;2.20;;;26.10;47.60;;;;;;5073806;28;20028;-44
2022/08/15 01:46:10;;;;;;;4.13;1.83;;;26.10;47.70;;;;;;5074623;28;20094;-43
2022/08/15 01:48:48;;;;;;;2.95;2.10;;;26.10;47.70;;;;;;5069837;28;20033;-42
2022/08/15 01:51:15;;;;;;;4.10;2.38;;;26.10;47.80;;;;;;5054366;28;20033;-43
2022/08/15 01:53:59;;;;;;;3.65;2.45;;;26.00;47.80;;;;;;5073398;28;20412;-47
2022/08/15 01:56:35;;;;;;;2.60;1.98;;;26.10;48.00;;;;;;5072708;28;20035;-42
2022/08/15 01:59:02;;;;;;;13.65;2.78;;;26.00;47.90;;;;;;5082459;28;20024;-44
2022/08/15 02:02:07;;;;;;;2.40;2.00;;;26.00;48.10;;;;;;5075955;28;20355;-51
2022/08/15 02:04:39;;;;;;;3.72;2.20;;;26.00;48.20;;;;;;5059520;28;20068;-44
2022/08/15 02:07:17;;;;;;;3.85;2.08;;;26.00;48.40;;;;;;5027090;28;20061;-42
2022/08/15 02:09:44;;;;;;;5.68;2.10;;;26.00;49.30;;;;;;5033359;28;20030;-45
2022/08/15 02:12:11;;;;;;;2.47;2.05;;;26.00;48.90;;;;;;5044280;28;20091;-44
2022/08/15 02:14:41;;;;;;;2.42;1.88;;;26.00;49.10;;;;;;5038816;28;20070;-44
2022/08/15 02:17:08;;;;;;;4.88;2.45;;;26.00;49.30;;;;;;5053578;28;20555;-44
2022/08/15 02:19:35;;;;;;;3.13;2.47;;;26.00;49.50;;;;;;5052725;28;20493;-42
2022/08/15 02:22:01;;;;;;;2.13;1.88;;;25.90;49.50;;;;;;5052485;28;20035;-45
2022/08/15 02:24:27;;;;;;;3.88;2.28;;;26.00;49.60;;;;;;5053351;28;20107;-53
2022/08/15 02:26:54;;;;;;;3.92;2.00;;;26.00;49.70;;;;;;5051760;28;20064;-44
2022/08/15 02:29:25;;;;;;;2.97;2.20;;;26.00;49.70;;;;;;5053734;28;20108;-43
2022/08/15 02:31:56;;;;;;;4.43;2.00;;;26.00;49.70;;;;;;5051175;28;20844;-43
2022/08/15 02:34:23;;;;;;;7.05;2.25;;;26.00;49.80;;;;;;5053716;28;20033;-44
2022/08/15 02:36:49;;;;;;;3.90;1.83;;;26.00;49.80;;;;;;5044389;28;20037;-42
2022/08/15 02:39:14;;;;;;;5.20;2.03;;;26.00;49.70;;;;;;5033303;28;20033;-43
2022/08/15 02:41:43;;;;;;;4.05;2.75;;;26.00;49.60;;;;;;5032154;28;20073;-45
2022/08/15 02:44:14;;;;;;;2.67;1.88;;;26.10;49.70;;;;;;5036185;28;20474;-43
2022/08/15 02:46:40;;;;;;;3.58;2.13;;;26.00;49.80;;;;;;5052673;28;20043;-43
2022/08/15 02:49:10;;;;;;;4.00;1.85;;;26.10;49.80;;;;;;5052080;28;20183;-42
2022/08/15 02:51:37;;;;;;;4.05;2.00;;;26.10;49.80;;;;;;5052471;28;20021;-43
2022/08/15 02:54:05;;;;;;;4.75;2.10;;;26.10;50.20;;;;;;5053193;28;20124;-47
2022/08/15 02:56:31;;;;;;;2.47;1.80;;;26.10;49.90;;;;;;5050918;28;20041;-54
2022/08/15 02:58:57;;;;;;;4.18;2.17;;;26.10;50.00;;;;;;5061291;28;20035;-44
2022/08/15 03:01:26;;;;;;;2.63;1.88;;;26.10;50.00;;;;;;5069273;28;20044;-44
2022/08/15 03:03:53;;;;;;;3.35;1.83;;;26.10;49.90;;;;;;5053383;28;20701;-44
2022/08/15 03:06:24;;;;;;;5.15;2.30;;;26.10;49.90;;;;;;5072371;28;20033;-42
2022/08/15 03:08:50;;;;;;;2.93;1.97;;;26.10;50.00;;;;;;5071249;28;20028;-43
2022/08/15 03:11:17;;;;;;;3.53;2.28;;;26.10;50.10;;;;;;5072075;28;20082;-43
2022/08/15 03:13:43;;;;;;;2.80;1.90;;;26.00;50.10;;;;;;5069375;28;20056;-43
2022/08/15 03:16:11;;;;;;;4.97;2.58;;;26.00;50.30;;;;;;5072043;28;20038;-47
2022/08/15 03:18:38;;;;;;;4.15;1.92;;;26.00;50.40;;;;;;5071882;28;20033;-43
2022/08/15 03:21:07;;;;;;;3.13;1.92;;;26.00;50.60;;;;;;5071927;28;20116;-43
2022/08/15 03:23:32;;;;;;;4.07;2.03;;;26.00;50.60;;;;;;5079482;28;20016;-52
2022/08/15 03:26:00;;;;;;;2.50;1.70;;;26.00;50.70;;;;;;5077140;28;20028;-44
2022/08/15 03:28:31;;;;;;;4.00;1.83;;;26.00;50.60;;;;;;5078707;28;20039;-43
2022/08/15 03:30:59;;;;;;;3.50;2.10;;;26.00;50.60;;;;;;5081602;28;20028;-43
2022/08/15 03:33:25;;;;;;;2.05;1.63;;;26.00;50.80;;;;;;5080654;28;20033;-45
2022/08/15 03:35:51;;;;;;;3.05;1.58;;;25.90;50.90;;;;;;5079283;28;20028;-45
2022/08/15 03:38:17;;;;;;;2.78;2.05;;;25.90;50.80;;;;;;5079888;28;20031;-42
2022/08/15 03:40:45;;;;;;;4.10;2.00;;;25.90;51.10;;;;;;5079473;28;20021;-46
2022/08/15 03:43:19;;;;;;;4.60;1.75;;;25.80;51.00;;;;;;5079261;28;20127;-47
2022/08/15 03:45:48;;;;;;;5.10;2.17;;;25.80;51.10;;;;;;5054295;28;20044;-43
2022/08/15 03:48:14;;;;;;;3.70;2.00;;;25.80;51.20;;;;;;5052155;28;20413;-44
2022/08/15 03:50:39;;;;;;;3.15;1.70;;;25.90;51.50;;;;;;5051010;28;20082;-43
2022/08/15 03:53:06;;;;;;;5.13;2.13;;;25.90;51.80;;;;;;5059408;28;20112;-49
2022/08/15 03:55:36;;;;;;;4.00;1.63;;;25.80;51.80;;;;;;5060427;28;20033;-52
2022/08/15 03:58:02;;;;;;;2.65;1.90;;;25.80;51.90;;;;;;5071865;28;20032;-44
2022/08/15 04:00:32;;;;;;;3.17;1.65;;;25.90;52.00;;;;;;5062477;28;20033;-43
2022/08/15 04:03:13;;;;;;;3.08;2.00;;;25.90;52.00;;;;;;5069978;28;20110;-45
2022/08/15 04:05:41;;;;;;;3.05;2.00;;;25.80;52.10;;;;;;5087656;28;20470;-46
2022/08/15 04:08:09;;;;;;;4.80;2.10;;;25.80;52.30;;;;;;5071975;28;20033;-45
2022/08/15 04:10:36;;;;;;;4.15;2.08;;;25.80;52.20;;;;;;5070968;28;20031;-49
2022/08/15 04:13:03;;;;;;;2.15;1.50;;;25.90;52.20;;;;;;5070059;28;20111;-43
2022/08/15 04:15:29;;;;;;;2.78;1.60;;;25.90;52.20;;;;;;5070309;28;20044;-42
2022/08/15 04:17:55;;;;;;;3.88;1.88;;;25.90;52.20;;;;;;5051123;28;20033;-43
2022/08/15 04:20:22;;;;;;;5.25;1.63;;;26.00;52.10;;;;;;5051656;28;20492;-42
2022/08/15 04:22:49;;;;;;;2.33;1.50;;;25.90;52.00;;;;;;5051097;28;20095;-42
2022/08/15 04:25:21;;;;;;;2.78;1.90;;;25.90;52.10;;;;;;5051312;28;20036;-43
2022/08/15 04:27:52;;;;;;;2.05;1.42;;;25.80;52.10;;;;;;5051041;28;20029;-43
2022/08/15 04:30:20;;;;;;;3.10;1.83;;;25.80;52.10;;;;;;5065802;28;20449;-44
2022/08/15 04:32:46;;;;;;;2.75;1.67;;;25.80;52.10;;;;;;5054486;28;20120;-46
2022/08/15 04:35:11;;;;;;;3.33;1.75;;;25.90;52.00;;;;;;5051507;28;20129;-42
2022/08/15 04:37:39;;;;;;;3.13;1.83;;;25.80;51.80;;;;;;5052263;28;20029;-43
2022/08/15 04:40:08;;;;;;;4.65;1.60;;;25.80;51.80;;;;;;5055640;28;20112;-43
2022/08/15 04:42:45;;;;;;;4.63;1.73;;;25.80;51.80;;;;;;5055114;28;20025;-53
2022/08/15 04:45:10;;;;;;;2.38;1.40;;;25.80;51.80;;;;;;5055676;28;20055;-43
2022/08/15 04:47:36;;;;;;;2.30;1.75;;;25.80;51.90;;;;;;5068367;28;20115;-51
2022/08/15 04:50:02;;;;;;;2.60;1.30;;;25.70;51.80;;;;;;5075546;28;20097;-42
2022/08/15 04:52:27;;;;;;;3.50;1.58;;;25.70;51.90;;;;;;5075469;28;20100;-42
2022/08/15 04:54:53;;;;;;;2.20;1.42;;;25.70;52.10;;;;;;5074551;28;20025;-42
2022/08/15 04:57:19;;;;;;;2.80;1.40;;;25.70;52.10;;;;;;5075419;28;20025;-42
2022/08/15 04:59:44;;;;;;;3.95;1.38;;;25.70;52.20;;;;;;5074227;28;20035;-47
2022/08/15 05:02:12;;;;;;;3.08;1.92;;;25.70;52.30;;;;;;5074587;28;20043;-46
2022/08/15 05:04:38;;;;;;;3.33;1.45;;;25.70;52.50;;;;;;5061548;28;20045;-46
2022/08/15 05:07:04;;;;;;;3.90;1.77;;;25.70;52.60;;;;;;5055139;28;20033;-43
2022/08/15 05:09:30;;;;;;;1.52;1.40;;;25.70;52.60;;;;;;5055443;28;20021;-47
2022/08/15 05:11:57;;;;;;;2.70;1.50;;;25.70;52.70;;;;;;5053972;28;20025;-42
2022/08/15 05:14:23;;;;;;;2.75;1.55;;;25.70;52.80;;;;;;5054806;28;20029;-43
2022/08/15 05:16:48;;;;;;;2.47;1.50;;;25.60;53.10;;;;;;5054057;28;20033;-47
2022/08/15 05:19:14;;;;;;;3.05;1.60;;;25.50;53.70;;;;;;5052405;28;20037;-42
2022/08/15 05:21:40;;;;;;;3.15;1.50;;;25.50;53.40;;;;;;5055108;28;20035;-43
2022/08/15 05:24:06;;;;;;;18.88;2.88;;;25.60;53.30;;;;;;5054977;28;20102;-42
2022/08/15 05:26:32;;;;;;;3.38;1.67;;;25.60;53.40;;;;;;5054235;28;20029;-44
2022/08/15 05:28:59;;;;;;;4.45;1.73;;;25.50;53.30;;;;;;5041149;28;20041;-41
2022/08/15 05:31:25;;;;;;;5.43;1.90;;;25.40;53.40;;;;;;5034742;28;20026;-42
2022/08/15 05:33:51;;;;;;;6.35;2.15;;;25.30;53.30;;;;;;5033945;28;20029;-43
2022/08/15 05:36:18;;;;;;;10.30;3.35;;;25.30;53.50;;;;;;5044738;28;20033;-41
2022/08/15 05:38:54;;;;;;;6.93;2.20;;;25.30;53.60;;;;;;5033272;28;20029;-45
2022/08/15 05:42:03;;;;;;;4.32;2.00;;;25.20;54.00;;;;;;5034084;28;20033;-42
2022/08/15 05:44:40;;;;;;;13.95;3.33;;;25.00;54.90;;;;;;4973092;28;20027;-41
2022/08/15 05:47:33;;;;;;;15.13;2.33;;;25.10;55.00;;;;;;4973919;28;20218;-45
2022/08/15 05:50:01;;;;;;;3.42;1.95;;;25.20;55.00;;;;;;5015786;28;20065;-46
2022/08/15 05:52:53;;;;;;;3.38;1.75;;;25.10;55.00;;;;;;5041162;28;20043;-44
2022/08/15 05:55:23;;;;;;;10.07;2.65;;;24.90;55.20;;;;;;5053852;28;20036;-47
2022/08/15 05:58:19;;;;;;;9.32;1.90;;;24.90;55.20;;;;;;5053194;28;20025;-42
2022/08/15 06:00:50;;;;;;;7.35;1.80;;;24.90;55.20;;;;;;5032987;28;20498;-42
2022/08/15 06:03:22;;;;;;;3.67;1.30;;;24.80;55.30;;;;;;5045928;28;20040;-44
2022/08/15 06:05:57;;;;;;;2.60;1.27;;;24.90;55.30;;;;;;5065268;28;20727;-43
2022/08/15 06:08:36;;;;;;;7.40;2.22;;;25.00;55.10;;;;;;5054524;28;20029;-43
2022/08/15 06:11:10;;;;;;;5.35;1.67;;;25.00;54.90;;;;;;5053476;28;20064;-46
2022/08/15 06:13:57;;;;;;;4.78;1.60;;;25.00;54.80;;;;;;5053502;28;20527;-50
2022/08/15 06:16:31;;;;;;;9.35;3.00;;;25.00;54.90;;;;;;5053847;28;20040;-44
2022/08/15 06:19:00;;;;;;;6.15;2.33;;;25.00;54.80;;;;;;5035150;28;20249;-41
2022/08/15 06:21:48;;;;;;;4.97;2.45;;;25.00;54.80;;;;;;5053675;28;20419;-42
2022/08/15 06:24:31;;;;;;;5.05;1.73;;;24.90;55.50;;;;;;5053008;28;20033;-48
2022/08/15 06:27:11;;;;;;;6.22;1.70;;;25.00;55.20;;;;;;5053021;28;20481;-45
2022/08/15 06:29:57;;;;;;;4.38;1.60;;;25.10;55.40;;;;;;5067724;28;20033;-51
2022/08/15 06:32:36;;;;;;;6.97;2.25;;;25.20;55.30;;;;;;5067637;28;20026;-43
2022/08/15 06:35:28;;;;;;;4.75;1.60;;;25.20;55.30;;;;;;5063016;28;20064;-42
2022/08/15 06:38:18;;;;;;;4.05;1.42;;;25.20;55.30;;;;;;5063031;28;20424;-45
2022/08/15 06:41:13;;;;;;;3.22;1.30;;;25.30;55.20;;;;;;5065069;28;20036;-42
2022/08/15 06:43:38;;;;;;;4.75;1.77;;;25.30;55.00;;;;;;5068732;28;20188;-52
2022/08/15 06:46:05;;;;;;;4.13;2.10;;;25.30;54.80;;;;;;5069296;28;20116;-49
2022/08/15 06:48:34;;;;;;;4.63;1.83;;;25.40;55.10;;;;;;5071699;28;20029;-42
2022/08/15 06:51:03;;;;;;;2.63;1.60;;;25.40;54.90;;;;;;5069989;28;20021;-43
2022/08/15 06:53:42;;;;;;;3.55;1.75;;;25.50;55.00;;;;;;5068777;28;20025;-40
2022/08/15 06:56:34;;;;;;;2.92;1.60;;;25.50;54.80;;;;;;5071406;28;20036;-41
2022/08/15 06:59:28;;;;;;;3.60;1.63;;;25.60;54.60;;;;;;5065180;28;20025;-51
2022/08/15 07:02:23;;;;;;;5.22;1.50;;;25.60;54.40;;;;;;5066660;28;20017;-40
2022/08/15 07:05:05;;;;;;;2.33;1.55;;;25.60;54.20;;;;;;5047762;28;20056;-42
2022/08/15 07:07:47;;;;;;;3.20;1.65;;;25.60;54.00;;;;;;5071837;28;20043;-44
2022/08/15 07:10:23;;;;;;;;;;;25.50;53.90;;;;;;5061253;28;20056;-42
2022/08/15 07:13:04;;;;;;;1.80;1.20;;;25.50;53.90;;;;;;5069969;28;19904;-41
2022/08/15 07:15:56;;;;;;;2.67;1.30;;;25.50;53.80;;;;;;5071179;28;20059;-43
2022/08/15 07:18:45;;;;;;;2.35;1.55;;;25.50;53.50;;;;;;5061317;28;20035;-44
2022/08/15 07:21:17;;;;;;;2.80;1.70;;;25.50;53.30;;;;;;5057566;28;20032;-42
2022/08/15 07:24:07;;;;;;;5.07;1.25;;;25.60;53.20;;;;;;5064469;28;20020;-49
2022/08/15 07:27:01;;;;;;;2.85;1.30;;;25.60;52.90;;;;;;5062543;28;20039;-45
2022/08/15 07:29:36;;;;;;;1.70;1.15;;;25.60;53.20;;;;;;5071408;28;20542;-41
2022/08/15 07:32:02;;;;;;;5.78;2.00;;;25.60;52.90;;;;;;5067086;28;20050;-42
2022/08/15 07:34:29;;;;;;;2.25;1.30;;;25.60;53.00;;;;;;5062102;28;20029;-42
2022/08/15 07:37:01;;;;;;;3.03;1.33;;;25.60;53.00;;;;;;5070887;28;20513;-41
2022/08/15 07:39:39;;;;;;;2.25;1.50;;;25.50;52.80;;;;;;5071704;28;20039;-42
2022/08/15 07:42:20;;;;;;;2.38;1.33;;;25.60;52.80;;;;;;5071234;28;20069;-42
2022/08/15 07:45:15;;;;;;;3.75;1.65;;;25.60;52.70;;;;;;5070681;28;20081;-41
2022/08/15 07:47:57;;;;;;;2.55;1.27;;;25.70;52.50;;;;;;5061566;28;20032;-50
2022/08/15 07:50:34;;;;;;;;;;;25.70;52.40;;;;;;5070741;28;20492;-43
2022/08/15 07:53:11;;;;;;;2.72;1.80;;;25.60;52.20;;;;;;5070273;28;20478;-42
2022/08/15 07:55:38;;;;;;;4.22;1.70;;;25.60;52.20;;;;;;5070856;28;20453;-42
2022/08/15 07:58:23;;;;;;;2.25;2.03;;;25.60;52.10;;;;;;5070324;28;20023;-42
2022/08/15 08:00:53;;;;;;;3.60;1.50;;;25.60;52.00;;;;;;5063083;28;20478;-42
2022/08/15 08:03:24;;;;;;;1.88;1.13;;;25.60;52.00;;;;;;5071056;28;20388;-42
2022/08/15 08:06:11;;;;;;;1.85;1.13;;;25.60;52.00;;;;;;5068038;28;20118;-45
2022/08/15 08:09:09;;;;;;;2.28;1.17;;;25.70;52.60;;;;;;5070166;28;20025;-43
2022/08/15 08:11:44;;;;;;;2.03;1.10;;;25.70;51.90;;;;;;5062700;28;20042;-44
2022/08/15 08:14:25;;;;;;;2.08;1.35;;;25.70;51.90;;;;;;5067540;28;20039;-42
2022/08/15 08:17:20;;;;;;;3.10;1.95;;;25.70;51.90;;;;;;5070448;28;20036;-42
2022/08/15 08:19:54;;;;;;;2.03;1.10;;;25.70;51.80;;;;;;5067580;28;20069;-42
2022/08/15 08:22:28;;;;;;;2.83;1.20;;;25.70;51.90;;;;;;5069444;28;20020;-42
2022/08/15 08:25:05;;;;;;;4.50;1.40;;;25.70;51.80;;;;;;5064277;28;20025;-42
2022/08/15 08:27:40;;;;;;;3.42;1.30;;;25.70;51.70;;;;;;5070808;28;20039;-46
2022/08/15 08:30:05;;;;;;;0.93;0.88;;;25.80;51.60;;;;;;5068139;28;20094;-42
2022/08/15 08:32:46;;;;;;;1.60;1.10;;;25.80;51.50;;;;;;5070752;28;20521;-41
2022/08/15 08:35:35;;;;;;;3.10;1.00;;;25.80;51.50;;;;;;5070771;28;20039;-42
2022/08/15 08:38:00;;;;;;;1.73;1.52;;;25.80;51.40;;;;;;5060629;28;20017;-43
2022/08/15 08:41:25;;;;;;;1.50;0.85;;;25.90;51.30;;;;;;5066730;28;20048;-41
2022/08/15 08:44:15;;;;;;;1.33;0.98;;;25.90;51.10;;;;;;5063201;28;20045;-44
2022/08/15 08:47:11;;;;;;;1.75;0.90;;;25.80;51.00;;;;;;5070124;28;20501;-49
2022/08/15 08:49:58;;;;;;;2.60;1.30;;;25.80;51.00;;;;;;5067479;28;20078;-41
2022/08/15 08:52:33;;;;;;;3.03;0.98;;;25.80;50.80;;;;;;5069646;28;20039;-42
2022/08/15 08:55:06;;;;;;;2.03;1.10;;;25.90;50.80;;;;;;5069830;28;20032;-41
2022/08/15 08:57:37;;;;;;;1.48;1.02;;;25.90;50.80;;;;;;5068608;28;20469;-42
2022/08/15 09:00:14;;;;;;;1.80;0.90;;;25.90;51.40;;;;;;5069345;28;20031;-42
2022/08/15 09:02:59;;;;;;;1.00;0.90;;;25.90;50.80;;;;;;5070305;28;20024;-50
2022/08/15 09:05:32;;;;;;;3.08;1.35;;;25.90;50.70;;;;;;5069152;28;20045;-41
2022/08/15 09:08:07;;;;;;;2.13;1.13;;;25.90;50.60;;;;;;5069967;28;21182;-46
2022/08/15 09:10:35;;;;;;;2.25;1.08;;;25.90;50.50;;;;;;5070418;28;20873;-42
2022/08/15 09:15:53;;;;;;;1.90;0.93;;;26.00;50.40;;;;;;5063521;28;20086;-45
2022/08/15 09:18:33;;;;;;;1.48;1.10;;;26.00;50.10;;;;;;5070551;28;20105;-41
2022/08/15 09:21:00;;;;;;;1.48;1.05;;;26.00;50.10;;;;;;5069518;28;20059;-43
2022/08/15 09:23:35;;;;;;;1.80;1.10;;;26.00;50.50;;;;;;5068922;28;20381;-43
2022/08/15 09:26:10;;;;;;;1.70;1.00;;;26.00;49.60;;;;;;5071627;28;20672;-43
2022/08/15 09:28:40;;;;;;;1.85;0.93;;;26.00;49.70;;;;;;5073943;28;20025;-44
2022/08/15 09:31:14;;;;;;;1.63;1.15;;;26.00;49.60;;;;;;5069068;28;20044;-43
2022/08/15 09:33:51;;;;;;;2.63;1.23;;;26.00;49.50;;;;;;5073346;28;20032;-42
2022/08/15 09:36:34;;;;;;;1.42;1.10;;;26.00;49.50;;;;;;5073599;28;20055;-42
2022/08/15 09:39:38;;;;;;;1.60;0.93;;;26.10;49.60;;;;;;5071480;28;20432;-45
2022/08/15 09:42:19;;;;;;;1.00;0.80;;;26.10;49.50;;;;;;5017039;28;20950;-45
2022/08/15 09:44:53;;;;;;;1.30;0.90;;;26.00;49.50;;;;;;5026630;28;20119;-45
2022/08/15 09:47:33;;;;;;;1.17;1.00;;;26.10;49.40;;;;;;5016827;28;20099;-44
2022/08/15 09:50:27;;;;;;;1.35;1.00;;;26.10;49.20;;;;;;5015941;28;20049;-42
2022/08/15 09:53:24;;;;;;;1.42;1.20;;;26.10;49.50;;;;;;5022309;28;20072;-43
2022/08/15 09:55:52;;;;;;;1.27;1.17;;;26.10;50.00;;;;;;4999015;28;20134;-42
2022/08/15 09:58:27;;;;;;;3.45;1.50;;;26.10;50.00;;;;;;5012806;28;20097;-43
2022/08/15 10:01:00;;;;;;;2.97;1.52;;;26.00;50.30;;;;;;5014033;28;20441;-44
2022/08/15 10:03:45;;;;;;;2.13;1.27;;;26.10;50.50;;;;;;5001031;28;20109;-42
2022/08/15 10:06:16;;;;;;;2.85;1.00;;;26.10;50.30;;;;;;5008637;28;20077;-45
2022/08/15 10:08:50;;;;;;;1.30;1.00;;;26.10;49.80;;;;;;5023149;28;20029;-49
2022/08/15 10:11:43;;;;;;;1.55;1.13;;;26.20;49.30;;;;;;5023777;28;20057;-43
2022/08/15 10:14:26;;;;;;;2.25;1.10;;;26.20;49.30;;;;;;5071241;28;20032;-44
2022/08/15 10:16:55;;;;;;;1.15;1.05;;;26.20;49.20;;;;;;5072240;28;20085;-42
2022/08/15 10:19:30;;;;;;;1.88;1.40;;;26.20;49.10;;;;;;5062979;28;20044;-45
2022/08/15 10:21:59;;;;;;;1.60;1.45;;;26.20;49.60;;;;;;5067102;28;20036;-42
2022/08/15 10:24:36;;;;;;;1.27;1.17;;;26.20;49.60;;;;;;5070730;28;20017;-43
2022/08/15 10:27:08;;;;;;;3.03;1.55;;;26.20;49.70;;;;;;5071734;28;20722;-43
2022/08/15 10:29:46;;;;;;;4.40;1.65;;;26.20;49.80;;;;;;5069861;28;20442;-45
2022/08/15 10:32:41;;;;;;;1.73;1.05;;;26.20;49.80;;;;;;5072621;28;20107;-44
2022/08/15 10:35:22;;;;;;;1.48;1.38;;;26.20;49.80;;;;;;5067456;28;20051;-45
2022/08/15 10:37:57;;;;;;;2.90;1.20;;;26.30;49.70;;;;;;5059447;28;20373;-46
2022/08/15 10:40:48;;;;;;;3.03;1.20;;;26.30;49.60;;;;;;5070442;28;20078;-41
2022/08/15 10:43:23;;;;;;;1.33;1.20;;;26.30;48.90;;;;;;5072603;28;20028;-42
2022/08/15 10:46:11;;;;;;;1.42;1.30;;;26.30;49.10;;;;;;5069745;28;20086;-43
2022/08/15 10:48:52;;;;;;;1.60;1.35;;;26.30;50.80;;;;;;5070934;28;20028;-43
2022/08/15 10:51:43;;;;;;;2.35;1.05;;;26.30;50.40;;;;;;5072173;28;20538;-42
2022/08/15 10:54:24;;;;;;;3.13;1.30;;;26.30;50.30;;;;;;5071944;28;20103;-43
2022/08/15 10:56:54;;;;;;;2.58;1.42;;;26.30;50.30;;;;;;5065721;28;20516;-41
2022/08/15 10:59:33;;;;;;;4.90;1.63;;;26.30;50.20;;;;;;5069121;28;20052;-42
2022/08/15 11:02:31;;;;;;;2.22;1.50;;;26.30;50.30;;;;;;5067569;28;20029;-46
2022/08/15 11:05:11;;;;;;;2.13;1.42;;;26.30;49.80;;;;;;5072840;28;20489;-42
2022/08/15 11:07:40;;;;;;;2.83;1.58;;;26.30;49.70;;;;;;5072862;28;20093;-42
2022/08/15 11:10:13;;;;;;;3.45;1.20;;;26.30;49.50;;;;;;5071094;28;20019;-43
2022/08/15 11:12:43;;;;;;;3.10;1.20;;;26.30;49.70;;;;;;5067233;28;20078;-42
2022/08/15 11:15:23;;;;;;;2.45;1.55;;;26.40;49.70;;;;;;5052156;28;20034;-42
2022/08/15 11:18:03;;;;;;;1.40;1.10;;;26.40;49.70;;;;;;5068915;28;20120;-44
2022/08/15 11:20:41;;;;;;;1.83;1.35;;;26.40;49.60;;;;;;5071776;28;20035;-43
2022/08/15 11:23:07;;;;;;;1.80;1.20;;;26.40;49.60;;;;;;5066677;28;20025;-42
2022/08/15 11:25:40;;;;;;;2.53;1.50;;;26.40;49.60;;;;;;5071457;28;20461;-42
2022/08/15 11:28:12;;;;;;;3.42;1.13;;;26.40;49.50;;;;;;5070894;28;20025;-42
2022/08/15 11:30:39;;;;;;;1.67;1.40;;;26.40;49.20;;;;;;5065584;28;20025;-43
2022/08/15 11:33:41;;;;;;;1.40;1.17;;;26.40;49.30;;;;;;5070800;28;20020;-43
2022/08/15 11:36:07;;;;;;;3.17;1.63;;;26.40;49.20;;;;;;5057146;28;20048;-43
2022/08/15 11:38:42;;;;;;;4.68;1.70;;;26.40;49.30;;;;;;5070307;28;20078;-42
2022/08/15 11:41:08;;;;;;;1.55;1.23;;;26.40;49.20;;;;;;5070879;28;20033;-42
2022/08/15 11:43:37;;;;;;;2.80;1.33;;;26.50;49.20;;;;;;5071503;28;20035;-41
2022/08/15 11:46:03;;;;;;;2.75;1.23;;;26.40;49.00;;;;;;5071028;28;20033;-42
2022/08/15 11:48:36;;;;;;;1.85;1.30;;;26.50;49.00;;;;;;5063911;28;20032;-43
2022/08/15 11:51:13;;;;;;;1.65;1.05;;;26.50;48.90;;;;;;5064354;28;20043;-42
2022/08/15 11:53:44;;;;;;;3.33;1.60;;;26.50;48.80;;;;;;5072777;28;20458;-41
2022/08/15 11:56:10;;;;;;;1.17;1.08;;;26.50;48.20;;;;;;5073021;28;20024;-43
2022/08/15 11:58:38;;;;;;;1.63;1.20;;;26.50;48.20;;;;;;5070816;28;20028;-41
2022/08/15 12:01:28;;;;;;;2.28;1.33;;;26.50;48.30;;;;;;5073373;28;20087;-44
2022/08/15 12:04:00;;;;;;;2.13;1.30;;;26.50;48.20;;;;;;5066698;28;20090;-42
2022/08/15 12:06:30;;;;;;;2.10;1.30;;;26.50;48.20;;;;;;5073493;28;20033;-42
2022/08/15 12:09:06;;;;;;;1.67;0.90;;;26.60;48.30;;;;;;5069892;28;20072;-43
2022/08/15 12:11:43;;;;;;;3.15;1.30;;;26.60;48.10;;;;;;5067063;28;20029;-42
2022/08/15 12:14:18;;;;;;;2.97;1.20;;;26.60;48.20;;;;;;5071008;28;20025;-44
2022/08/15 12:17:03;;;;;;;1.10;0.90;;;26.60;48.00;;;;;;5068743;28;20028;-48
2022/08/15 12:19:35;;;;;;;1.70;1.55;;;26.60;48.10;;;;;;5073372;28;20107;-41
2022/08/15 12:22:13;;;;;;;1.88;1.20;;;26.60;47.60;;;;;;5065114;28;20029;-41
2022/08/15 12:24:42;;;;;;;2.63;1.30;;;26.60;47.10;;;;;;5067608;28;20041;-41
2022/08/15 12:27:09;;;;;;;1.23;1.10;;;26.60;47.20;;;;;;5060026;28;20033;-41
2022/08/15 12:29:36;;;;;;;1.33;1.23;;;26.60;47.30;;;;;;5052797;28;20068;-42
2022/08/15 12:32:04;;;;;;;2.00;1.33;;;26.60;47.30;;;;;;5070130;28;20031;-41
2022/08/15 12:34:36;;;;;;;1.95;1.17;;;26.60;47.30;;;;;;5070962;28;20422;-43
2022/08/15 12:37:06;;;;;;;2.47;1.30;;;26.60;47.20;;;;;;5065181;28;20086;-41
2022/08/15 12:39:36;;;;;;;2.33;1.25;;;26.60;47.40;;;;;;5063160;28;20024;-41
2022/08/15 12:42:02;;;;;;;2.53;1.50;;;26.70;47.40;;;;;;5070101;28;20533;-42
2022/08/15 12:44:33;;;;;;;2.65;1.45;;;26.70;46.90;;;;;;5070397;28;20100;-42
2022/08/15 12:46:59;;;;;;;1.70;1.38;;;26.70;46.70;;;;;;5069498;28;20461;-42
2022/08/15 12:49:25;;;;;;;1.90;1.30;;;26.70;46.80;;;;;;5066411;28;20107;-41
2022/08/15 12:51:51;;;;;;;1.45;1.30;;;26.80;47.00;;;;;;5069666;28;20107;-43
2022/08/15 12:54:18;;;;;;;3.72;1.33;;;26.80;47.00;;;;;;5072609;28;20074;-41
2022/08/15 12:56:44;;;;;;;2.10;1.42;;;26.70;47.00;;;;;;5070527;28;20039;-48
2022/08/15 12:59:11;;;;;;;2.85;1.50;;;26.80;47.20;;;;;;5071789;28;20016;-44
2022/08/15 13:01:37;;;;;;;2.85;1.45;;;26.70;47.20;;;;;;5074348;28;20161;-44
2022/08/15 13:04:06;;;;;;;1.95;1.00;;;26.70;47.20;;;;;;5073276;28;20040;-43
2022/08/15 13:06:46;;;;;;;2.30;1.25;;;26.70;47.20;;;;;;5074027;28;20086;-41
2022/08/15 13:09:13;;;;;;;2.45;1.20;;;26.70;47.30;;;;;;5073892;28;20060;-46
2022/08/15 13:11:40;;;;;;;1.58;1.40;;;26.70;47.30;;;;;;5072767;28;20025;-47
2022/08/15 13:14:07;;;;;;;1.73;1.20;;;26.70;47.40;;;;;;5067089;28;20521;-48
2022/08/15 13:16:34;;;;;;;3.30;1.30;;;26.70;47.40;;;;;;5073994;28;20059;-44
2022/08/15 13:19:06;;;;;;;2.30;1.40;;;26.70;47.40;;;;;;5072801;28;20887;-44
2022/08/15 13:24:17;;;;;;;2.13;1.10;;;26.70;47.40;;;;;;5073337;28;20078;-47
2022/08/15 13:26:43;;;;;;;1.83;1.38;;;26.70;47.30;;;;;;5074006;28;20037;-43